createdAt,value
2018-06-04T00:00:07.645Z,55.69
2018-06-04T00:02:36.371Z,55.74
2018-06-04T00:05:05.116Z,55.90
2018-06-04T00:07:33.780Z,56.00
2018-06-04T00:10:02.523Z,56.03
2018-06-04T00:12:31.221Z,56.04
2018-06-04T00:14:59.901Z,56.18
2018-06-04T00:17:28.780Z,55.73
2018-06-04T00:19:57.547Z,55.79
2018-06-04T00:22:26.179Z,56.08
2018-06-04T00:24:54.900Z,55.91
2018-06-04T00:27:23.842Z,56.03
2018-06-04T00:29:52.499Z,56.23
2018-06-04T00:32:21.385Z,56.20
2018-06-04T00:34:50.033Z,56.58
2018-06-04T00:37:18.893Z,56.55
2018-06-04T00:39:47.610Z,56.69
2018-06-04T00:42:16.298Z,56.95
2018-06-04T00:44:45.110Z,56.89
2018-06-04T00:47:13.880Z,57.10
2018-06-04T00:49:42.624Z,57.17
2018-06-04T00:52:11.458Z,57.52
2018-06-04T00:54:40.182Z,57.42
2018-06-04T00:57:08.834Z,57.76
2018-06-04T00:59:38.372Z,57.82
2018-06-04T01:02:07.055Z,58.14
2018-06-04T01:04:35.743Z,57.47
2018-06-04T01:07:04.444Z,57.59
2018-06-04T01:09:33.207Z,57.77
2018-06-04T01:12:01.872Z,57.99
2018-06-04T01:14:30.572Z,58.41
2018-06-04T01:16:59.259Z,58.25
2018-06-04T01:19:27.907Z,58.22
2018-06-04T01:21:56.579Z,58.04
2018-06-04T01:24:25.273Z,57.84
2018-06-04T01:26:53.950Z,58.29
2018-06-04T01:29:22.624Z,58.39
2018-06-04T01:31:51.370Z,58.22
2018-06-04T01:34:20.056Z,58.67
2018-06-04T01:36:48.723Z,59.13
2018-06-04T01:39:17.387Z,58.89
2018-06-04T01:41:46.065Z,59.21
2018-06-04T01:44:14.750Z,59.78
2018-06-04T01:46:43.452Z,60.20
2018-06-04T01:49:12.131Z,60.45
2018-06-04T01:51:40.832Z,60.43
2018-06-04T01:54:09.478Z,60.48
2018-06-04T01:56:38.146Z,60.98
2018-06-04T01:59:06.870Z,60.83
2018-06-04T02:01:35.580Z,61.04
2018-06-04T02:04:04.333Z,62.27
2018-06-04T02:06:33.087Z,62.45
2018-06-04T02:09:01.814Z,62.15
2018-06-04T02:11:30.511Z,62.32
2018-06-04T02:13:59.229Z,62.48
2018-06-04T02:16:27.932Z,63.24
2018-06-04T02:18:56.620Z,63.13
2018-06-04T02:21:25.289Z,63.17
2018-06-04T02:23:53.962Z,63.11
2018-06-04T02:26:22.631Z,63.10
2018-06-04T02:28:51.306Z,63.08
2018-06-04T02:31:19.978Z,63.27
2018-06-04T02:33:48.728Z,63.28
2018-06-04T02:36:17.469Z,63.02
2018-06-04T02:38:46.128Z,63.80
2018-06-04T02:41:14.779Z,63.82
2018-06-04T02:43:43.519Z,63.89
2018-06-04T02:46:12.266Z,64.57
2018-06-04T02:48:40.958Z,65.44
2018-06-04T02:51:09.713Z,65.37
2018-06-04T02:53:38.401Z,65.97
2018-06-04T02:56:07.099Z,66.01
2018-06-04T02:58:35.791Z,66.56
2018-06-04T03:01:04.479Z,67.14
2018-06-04T03:03:33.164Z,67.38
2018-06-04T03:06:01.870Z,67.97
2018-06-04T03:08:30.627Z,68.27
2018-06-04T03:10:59.304Z,69.28
2018-06-04T03:13:27.930Z,69.41
2018-06-04T03:15:56.581Z,69.33
2018-06-04T03:18:25.241Z,69.75
2018-06-04T03:20:53.918Z,69.86
2018-06-04T03:23:22.591Z,69.86
2018-06-04T03:25:51.187Z,70.10
2018-06-04T03:28:19.857Z,70.16
2018-06-04T03:30:48.808Z,70.70
2018-06-04T03:33:17.489Z,70.65
2018-06-04T03:35:46.178Z,70.56
2018-06-04T03:38:14.856Z,71.22
2018-06-04T03:40:43.564Z,71.58
2018-06-04T03:43:12.285Z,71.50
2018-06-04T03:45:41.039Z,71.59
2018-06-04T03:48:09.752Z,71.99
2018-06-04T03:50:38.399Z,72.20
2018-06-04T03:53:07.082Z,72.00
2018-06-04T03:55:35.749Z,71.40
2018-06-04T03:58:04.488Z,71.22
2018-06-04T04:00:33.197Z,71.26
2018-06-04T04:03:02.000Z,72.11
2018-06-04T04:05:30.749Z,71.68
2018-06-04T04:07:59.470Z,71.32
2018-06-04T04:10:28.111Z,71.32
2018-06-04T04:12:56.800Z,70.84
2018-06-04T04:15:25.629Z,70.75
2018-06-04T04:17:54.370Z,70.78
2018-06-04T04:20:23.158Z,70.41
2018-06-04T04:22:51.862Z,70.30
2018-06-04T04:25:20.550Z,69.70
2018-06-04T04:27:49.316Z,69.87
2018-06-04T04:30:18.385Z,69.77
2018-06-04T04:32:47.137Z,69.21
2018-06-04T04:35:15.840Z,68.32
2018-06-04T04:37:45.542Z,68.78
2018-06-04T04:40:14.289Z,68.16
2018-06-04T04:42:43.013Z,68.41
2018-06-04T04:45:11.683Z,67.78
2018-06-04T04:47:40.459Z,68.02
2018-06-04T04:50:09.159Z,67.89
2018-06-04T04:52:37.833Z,67.61
2018-06-04T04:55:06.751Z,67.57
2018-06-04T04:57:35.451Z,67.45
2018-06-04T05:00:06.420Z,67.02
2018-06-04T05:02:35.142Z,67.29
2018-06-04T05:05:04.021Z,66.98
2018-06-04T05:07:32.733Z,66.82
2018-06-04T05:10:01.462Z,66.96
2018-06-04T05:12:30.120Z,66.25
2018-06-04T05:14:58.845Z,65.33
2018-06-04T05:17:27.550Z,65.36
2018-06-04T05:19:56.241Z,65.41
2018-06-04T05:22:24.949Z,66.04
2018-06-04T05:24:53.653Z,64.94
2018-06-04T05:27:22.439Z,64.26
2018-06-04T05:29:51.158Z,63.81
2018-06-04T05:32:19.908Z,63.17
2018-06-04T05:34:48.943Z,63.57
2018-06-04T05:37:17.605Z,63.14
2018-06-04T05:39:46.276Z,63.12
2018-06-04T05:42:14.961Z,62.95
2018-06-04T05:44:43.616Z,62.29
2018-06-04T05:47:12.297Z,61.18
2018-06-04T05:49:40.967Z,60.51
2018-06-04T05:52:09.686Z,60.70
2018-06-04T05:54:38.362Z,59.84
2018-06-04T05:57:07.007Z,59.50
2018-06-04T05:59:35.734Z,58.92
2018-06-04T06:02:04.498Z,58.89
2018-06-04T06:04:33.186Z,58.17
2018-06-04T06:07:01.859Z,58.47
2018-06-04T06:09:30.519Z,58.46
2018-06-04T06:11:59.236Z,58.38
2018-06-04T06:14:27.986Z,57.98
2018-06-04T06:16:56.691Z,57.66
2018-06-04T06:19:25.579Z,58.02
2018-06-04T06:21:58.349Z,58.16
2018-06-04T06:24:27.006Z,58.26
2018-06-04T06:26:55.690Z,58.64
2018-06-04T06:29:24.516Z,59.36
2018-06-04T06:31:53.149Z,58.89
2018-06-04T06:34:21.828Z,58.76
2018-06-04T06:36:50.486Z,58.11
2018-06-04T06:39:19.151Z,58.89
2018-06-04T06:41:47.865Z,59.11
2018-06-04T06:44:16.569Z,59.22
2018-06-04T06:46:45.247Z,58.46
2018-06-04T06:49:13.891Z,58.07
2018-06-04T06:51:42.649Z,57.47
2018-06-04T06:54:11.296Z,57.90
2018-06-04T06:56:40.020Z,57.70
2018-06-04T06:59:09.317Z,57.42
2018-06-04T07:01:38.051Z,57.52
2018-06-04T07:04:06.771Z,55.83
2018-06-04T07:06:35.444Z,56.24
2018-06-04T07:09:04.555Z,56.35
2018-06-04T07:11:33.273Z,56.38
2018-06-04T07:14:01.980Z,55.63
2018-06-04T07:16:30.651Z,56.58
2018-06-04T07:18:59.374Z,56.42
2018-06-04T07:21:28.149Z,54.91
2018-06-04T07:23:56.847Z,55.62
2018-06-04T07:26:25.581Z,54.64
2018-06-04T07:28:54.326Z,56.05
2018-06-04T07:31:22.991Z,55.59
2018-06-04T07:33:51.710Z,54.56
2018-06-04T07:36:20.343Z,53.72
2018-06-04T07:38:49.029Z,54.42
2018-06-04T07:41:17.696Z,54.89
2018-06-04T07:43:46.364Z,55.03
2018-06-04T07:46:15.958Z,55.17
2018-06-04T07:48:44.689Z,54.26
2018-06-04T07:51:13.444Z,53.36
2018-06-04T07:53:42.124Z,53.51
2018-06-04T07:56:10.835Z,53.63
2018-06-04T07:58:39.515Z,52.82
2018-06-04T08:01:08.200Z,52.90
2018-06-04T08:03:36.831Z,52.24
2018-06-04T08:06:05.645Z,52.52
2018-06-04T08:08:34.384Z,50.96
2018-06-04T08:11:03.096Z,51.54
2018-06-04T08:13:31.805Z,52.27
2018-06-04T08:16:00.545Z,51.43
2018-06-04T08:18:29.272Z,50.98
2018-06-04T08:20:57.951Z,49.70
2018-06-04T08:23:26.651Z,49.33
2018-06-04T08:25:55.357Z,50.38
2018-06-04T08:28:24.036Z,49.49
2018-06-04T08:30:52.753Z,50.37
2018-06-04T08:33:21.454Z,50.25
2018-06-04T08:35:50.143Z,50.81
2018-06-04T08:38:18.857Z,49.72
2018-06-04T08:40:47.606Z,48.55
2018-06-04T08:43:16.300Z,49.81
2018-06-04T08:45:45.048Z,48.22
2018-06-04T08:48:13.710Z,50.20
2018-06-04T08:50:42.314Z,49.67
2018-06-04T08:53:11.059Z,49.90
2018-06-04T08:55:39.791Z,51.18
2018-06-04T08:58:08.567Z,50.21
2018-06-04T09:00:37.235Z,49.05
2018-06-04T09:03:05.981Z,48.88
2018-06-04T09:05:34.693Z,48.54
2018-06-04T09:08:03.356Z,48.85
2018-06-04T09:10:32.017Z,48.40
2018-06-04T09:13:01.683Z,47.98
2018-06-04T09:15:30.335Z,47.42
2018-06-04T09:17:59.016Z,48.09
2018-06-04T09:20:27.677Z,47.64
2018-06-04T09:22:56.336Z,46.78
2018-06-04T09:25:25.019Z,42.28
2018-06-04T09:27:53.658Z,43.41
2018-06-04T09:30:22.344Z,44.20
2018-06-04T09:32:50.991Z,45.67
2018-06-04T09:35:19.695Z,44.53
2018-06-04T09:37:48.434Z,43.96
2018-06-04T09:40:17.092Z,44.44
2018-06-04T09:42:45.799Z,41.65
2018-06-04T09:45:14.485Z,39.83
2018-06-04T09:47:43.183Z,41.16
2018-06-04T09:50:11.831Z,41.79
2018-06-04T09:52:40.494Z,42.17
2018-06-04T09:55:09.164Z,43.59
2018-06-04T09:57:37.834Z,44.42
2018-06-04T10:00:07.790Z,42.51
2018-06-04T10:02:36.572Z,43.00
2018-06-04T10:05:05.246Z,42.33
2018-06-04T10:07:33.903Z,40.08
2018-06-04T10:10:02.665Z,37.90
2018-06-04T10:12:31.304Z,40.00
2018-06-04T10:14:59.948Z,38.13
2018-06-04T10:17:28.603Z,39.48
2018-06-04T10:19:57.266Z,39.85
2018-06-04T10:22:26.002Z,39.79
2018-06-04T10:24:54.649Z,39.92
2018-06-04T10:27:23.282Z,41.03
2018-06-04T10:29:51.964Z,40.19
2018-06-04T10:32:20.667Z,39.28
2018-06-04T10:34:50.005Z,39.45
2018-06-04T10:37:19.849Z,44.79
2018-06-04T10:39:48.513Z,45.86
2018-06-04T10:42:17.155Z,45.89
2018-06-04T10:44:45.956Z,45.61
2018-06-04T10:47:14.601Z,44.71
2018-06-04T10:49:43.894Z,45.39
2018-06-04T10:52:12.546Z,43.36
2018-06-04T10:54:41.203Z,43.81
2018-06-04T10:57:09.827Z,42.89
2018-06-04T10:59:38.747Z,41.92
2018-06-04T11:02:07.440Z,41.61
2018-06-04T11:04:36.063Z,41.76
2018-06-04T11:07:04.722Z,41.88
2018-06-04T11:09:33.379Z,38.95
2018-06-04T11:12:02.072Z,37.41
2018-06-04T11:14:30.715Z,38.34
2018-06-04T11:17:00.421Z,38.82
2018-06-04T11:19:29.119Z,37.82
2018-06-04T11:21:57.776Z,37.22
2018-06-04T11:24:26.452Z,35.97
2018-06-04T11:26:55.195Z,36.49
2018-06-04T11:29:23.896Z,36.09
2018-06-04T11:31:52.571Z,34.42
2018-06-04T11:34:21.206Z,34.57
2018-06-04T11:36:49.863Z,34.42
2018-06-04T11:39:18.497Z,32.57
2018-06-04T11:41:47.382Z,33.22
2018-06-04T11:44:16.029Z,33.39
2018-06-04T11:46:44.683Z,33.59
2018-06-04T11:49:13.399Z,33.59
2018-06-04T11:51:42.094Z,33.39
2018-06-04T11:54:10.842Z,33.44
2018-06-04T11:56:39.538Z,32.65
2018-06-04T11:59:08.152Z,32.22
2018-06-04T12:01:36.914Z,31.83
2018-06-04T12:04:05.574Z,31.67
2018-06-04T12:06:34.234Z,31.60
2018-06-04T12:09:02.966Z,31.22
2018-06-04T12:11:31.689Z,32.06
2018-06-04T12:14:00.339Z,30.47
2018-06-04T12:16:29.034Z,31.55
2018-06-04T12:18:57.675Z,31.75
2018-06-04T12:21:26.363Z,31.08
2018-06-04T12:23:55.078Z,31.80
2018-06-04T12:26:23.779Z,32.08
2018-06-04T12:28:52.482Z,30.44
2018-06-04T12:31:21.131Z,31.06
2018-06-04T12:33:49.895Z,32.72
2018-06-04T12:36:18.544Z,31.42
2018-06-04T12:38:47.235Z,30.77
2018-06-04T12:41:16.006Z,31.01
2018-06-04T12:43:44.794Z,30.68
2018-06-04T12:46:13.483Z,32.42
2018-06-04T12:48:42.167Z,31.69
2018-06-04T12:51:10.802Z,31.49
2018-06-04T12:53:39.523Z,30.85
2018-06-04T12:56:08.259Z,30.46
2018-06-04T12:58:36.902Z,30.40
2018-06-04T13:01:05.592Z,30.23
2018-06-04T13:03:34.286Z,29.57
2018-06-04T13:06:03.052Z,30.50
2018-06-04T13:08:31.756Z,31.52
2018-06-04T13:11:00.431Z,29.27
2018-06-04T13:13:29.071Z,30.42
2018-06-04T13:15:57.798Z,29.55
2018-06-04T13:18:26.535Z,30.57
2018-06-04T13:20:55.279Z,30.20
2018-06-04T13:23:23.971Z,30.30
2018-06-04T13:25:52.672Z,29.67
2018-06-04T13:28:21.299Z,29.85
2018-06-04T13:30:50.041Z,27.94
2018-06-04T13:33:18.722Z,27.68
2018-06-04T13:35:47.458Z,28.47
2018-06-04T13:38:16.133Z,29.73
2018-06-04T13:40:44.858Z,29.47
2018-06-04T13:43:13.520Z,29.10
2018-06-04T13:45:43.307Z,30.41
2018-06-04T13:48:13.124Z,31.36
2018-06-04T13:50:41.788Z,31.96
2018-06-04T13:53:10.511Z,32.08
2018-06-04T13:55:39.218Z,33.13
2018-06-04T13:58:07.864Z,32.82
2018-06-04T14:00:36.569Z,33.55
2018-06-04T14:03:05.266Z,34.82
2018-06-04T14:05:33.873Z,37.15
2018-06-04T14:08:02.519Z,38.71
2018-06-04T14:10:31.224Z,39.46
2018-06-04T14:12:59.928Z,39.40
2018-06-04T14:15:28.622Z,39.88
2018-06-04T14:17:57.311Z,39.90
2018-06-04T14:20:26.061Z,40.13
2018-06-04T14:22:55.279Z,40.30
2018-06-04T14:25:23.980Z,39.24
2018-06-04T14:27:52.625Z,39.23
2018-06-04T14:30:21.441Z,38.12
2018-06-04T14:32:50.145Z,36.26
2018-06-04T14:35:18.823Z,35.36
2018-06-04T14:37:47.549Z,34.48
2018-06-04T14:40:16.357Z,34.23
2018-06-04T14:42:45.390Z,33.98
2018-06-04T14:45:14.039Z,33.61
2018-06-04T14:47:42.691Z,33.89
2018-06-04T14:50:11.364Z,33.78
2018-06-04T14:52:39.986Z,33.96
2018-06-04T14:55:08.613Z,34.31
2018-06-04T14:57:37.300Z,35.04
2018-06-04T15:00:07.063Z,35.84
2018-06-04T15:02:35.756Z,35.97
2018-06-04T15:05:04.563Z,35.09
2018-06-04T15:07:33.242Z,34.85
2018-06-04T15:10:01.926Z,33.63
2018-06-04T15:12:30.590Z,33.19
2018-06-04T15:14:59.239Z,33.55
2018-06-04T15:17:28.022Z,33.66
2018-06-04T15:19:56.750Z,33.79
2018-06-04T15:22:25.475Z,33.73
2018-06-04T15:24:54.225Z,35.63
2018-06-04T15:27:22.982Z,35.48
2018-06-04T15:29:51.917Z,36.21
2018-06-04T15:32:20.681Z,35.97
2018-06-04T15:34:49.527Z,35.86
2018-06-04T15:37:18.524Z,36.21
2018-06-04T15:39:47.136Z,34.10
2018-06-04T15:42:15.780Z,34.04
2018-06-04T15:44:44.510Z,34.77
2018-06-04T15:47:13.229Z,34.83
2018-06-04T15:49:41.859Z,34.76
2018-06-04T15:52:10.527Z,34.75
2018-06-04T15:54:39.288Z,35.90
2018-06-04T15:57:07.931Z,36.40
2018-06-04T15:59:36.561Z,38.65
2018-06-04T16:02:05.330Z,38.92
2018-06-04T16:04:34.032Z,38.82
2018-06-04T16:07:02.655Z,39.36
2018-06-04T16:09:31.332Z,40.09
2018-06-04T16:12:00.049Z,39.62
2018-06-04T16:14:28.696Z,39.71
2018-06-04T16:16:57.403Z,39.96
2018-06-04T16:19:26.028Z,40.49
2018-06-04T16:21:54.785Z,40.91
2018-06-04T16:24:23.404Z,40.19
2018-06-04T16:26:52.105Z,40.00
2018-06-04T16:29:20.775Z,39.89
2018-06-04T16:31:49.417Z,41.25
2018-06-04T16:34:18.056Z,40.89
2018-06-04T16:36:46.677Z,42.05
2018-06-04T16:39:15.347Z,43.29
2018-06-04T16:41:44.744Z,43.26
2018-06-04T16:44:13.433Z,43.02
2018-06-04T16:46:42.075Z,42.93
2018-06-04T16:49:10.711Z,41.75
2018-06-04T16:51:39.392Z,42.93
2018-06-04T16:54:08.218Z,43.01
2018-06-04T16:56:36.884Z,42.92
2018-06-04T16:59:05.530Z,42.89
2018-06-04T17:01:34.302Z,43.70
2018-06-04T17:04:02.944Z,44.39
2018-06-04T17:06:32.639Z,44.51
2018-06-04T17:09:01.354Z,44.04
2018-06-04T17:11:30.061Z,44.64
2018-06-04T17:14:00.755Z,45.00
2018-06-04T17:16:30.152Z,44.38
2018-06-04T17:18:58.826Z,44.36
2018-06-04T17:21:27.550Z,44.85
2018-06-04T17:23:56.339Z,44.63
2018-06-04T17:26:25.048Z,45.17
2018-06-04T17:28:53.737Z,45.77
2018-06-04T17:31:22.431Z,46.06
2018-06-04T17:33:52.715Z,46.67
2018-06-04T17:36:21.491Z,46.49
2018-06-04T17:38:50.531Z,45.00
2018-06-04T17:41:19.241Z,45.48
2018-06-04T17:43:47.943Z,46.15
2018-06-04T17:46:16.901Z,46.94
2018-06-04T17:48:45.623Z,47.45
2018-06-04T17:51:14.727Z,48.06
2018-06-04T17:53:43.412Z,49.17
2018-06-04T17:56:12.054Z,46.97
2018-06-04T17:58:40.725Z,46.75
2018-06-04T18:01:09.484Z,48.32
2018-06-04T18:03:38.151Z,48.53
2018-06-04T18:06:06.866Z,49.73
2018-06-04T18:08:36.326Z,48.59
2018-06-04T18:11:05.326Z,49.84
2018-06-04T18:13:34.488Z,50.76
2018-06-04T18:16:03.221Z,50.70
2018-06-04T18:18:31.836Z,50.83
2018-06-04T18:21:00.557Z,50.50
2018-06-04T18:23:29.227Z,49.55
2018-06-04T18:25:59.018Z,49.86
2018-06-04T18:28:27.741Z,49.56
2018-06-04T18:30:56.483Z,48.37
2018-06-04T18:33:25.244Z,47.82
2018-06-04T18:35:53.983Z,47.02
2018-06-04T18:38:23.336Z,47.49
2018-06-04T18:40:52.127Z,47.58
2018-06-04T18:43:20.817Z,47.83
2018-06-04T18:45:49.716Z,48.09
2018-06-04T18:48:18.430Z,47.17
2018-06-04T18:50:48.242Z,47.58
2018-06-04T18:53:16.927Z,46.41
2018-06-04T18:55:45.649Z,46.56
2018-06-04T18:58:14.477Z,47.12
2018-06-04T19:00:43.170Z,47.03
2018-06-04T19:03:12.863Z,47.75
2018-06-04T19:05:45.284Z,49.00
2018-06-04T19:08:14.068Z,49.40
2018-06-04T19:10:42.714Z,49.82
2018-06-04T19:13:11.384Z,50.38
2018-06-04T19:15:40.222Z,51.67
2018-06-04T19:18:09.823Z,54.62
2018-06-04T19:20:40.134Z,55.68
2018-06-04T19:23:08.797Z,58.21
2018-06-04T19:25:38.078Z,56.87
2018-06-04T19:28:06.731Z,57.55
2018-06-04T19:30:35.438Z,59.48
2018-06-04T19:33:04.112Z,60.29
2018-06-04T19:35:32.836Z,60.87
2018-06-04T19:38:01.652Z,62.13
2018-06-04T19:40:30.325Z,62.18
2018-06-04T19:42:59.011Z,62.48
2018-06-04T19:45:27.654Z,60.16
2018-06-04T19:47:56.321Z,59.99
2018-06-04T19:50:24.948Z,61.27
2018-06-04T19:52:53.629Z,62.27
2018-06-04T19:55:22.334Z,62.11
2018-06-04T19:57:51.088Z,65.59
2018-06-04T20:00:19.900Z,69.89
2018-06-04T20:02:48.800Z,65.84
2018-06-04T20:05:17.425Z,64.85
2018-06-04T20:07:46.069Z,62.42
2018-06-04T20:10:14.718Z,62.55
2018-06-04T20:12:43.414Z,62.37
2018-06-04T20:15:12.220Z,63.65
2018-06-04T20:17:40.882Z,70.25
2018-06-04T20:20:09.928Z,70.10
2018-06-04T20:22:38.607Z,70.76
2018-06-04T20:25:07.419Z,72.10
2018-06-04T20:27:36.099Z,72.56
2018-06-04T20:30:05.797Z,69.63
2018-06-04T20:32:34.747Z,68.72
2018-06-04T20:35:03.508Z,68.97
2018-06-04T20:37:32.303Z,66.12
2018-06-04T20:40:01.070Z,66.67
2018-06-04T20:42:29.749Z,66.42
2018-06-04T20:44:58.424Z,67.44
2018-06-04T20:47:27.465Z,66.93
2018-06-04T20:49:56.121Z,67.26
2018-06-04T20:52:24.878Z,66.70
2018-06-04T20:54:53.639Z,66.98
2018-06-04T20:57:22.405Z,65.82
2018-06-04T20:59:51.024Z,65.16
2018-06-04T21:02:19.710Z,63.75
2018-06-04T21:04:48.402Z,64.23
2018-06-04T21:07:17.067Z,64.79
2018-06-04T21:09:50.286Z,68.42
2018-06-04T21:12:19.030Z,67.89
2018-06-04T21:14:47.725Z,68.04
2018-06-04T21:17:16.371Z,65.97
2018-06-04T21:19:45.064Z,65.95
2018-06-04T21:22:13.717Z,65.10
2018-06-04T21:24:42.407Z,64.85
2018-06-04T21:27:11.171Z,64.44
2018-06-04T21:29:39.819Z,64.92
2018-06-04T21:32:08.468Z,65.61
2018-06-04T21:34:37.129Z,65.12
2018-06-04T21:37:05.933Z,65.74
2018-06-04T21:39:34.861Z,66.05
2018-06-04T21:42:03.604Z,66.28
2018-06-04T21:44:32.241Z,69.89
2018-06-04T21:47:01.002Z,71.32
2018-06-04T21:49:29.633Z,72.38
2018-06-04T21:51:58.381Z,72.52
2018-06-04T21:54:28.108Z,72.94
2018-06-04T21:56:57.407Z,73.38
2018-06-04T21:59:26.035Z,73.15
2018-06-04T22:01:55.424Z,73.08
2018-06-04T22:04:24.147Z,72.92
2018-06-04T22:06:52.968Z,72.16
2018-06-04T22:09:21.695Z,72.41
2018-06-04T22:11:50.340Z,71.09
2018-06-04T22:14:18.995Z,71.82
2018-06-04T22:16:47.812Z,72.09
2018-06-04T22:19:17.428Z,72.64
2018-06-04T22:21:46.048Z,70.43
2018-06-04T22:24:14.693Z,66.89
2018-06-04T22:26:43.335Z,66.02
2018-06-04T22:29:12.039Z,68.52
2018-06-04T22:31:40.743Z,65.94
2018-06-04T22:34:09.400Z,66.90
2018-06-04T22:36:38.069Z,68.42
2018-06-04T22:39:09.264Z,67.84
2018-06-04T22:41:37.951Z,70.18
2018-06-04T22:44:06.753Z,71.57
2018-06-04T22:46:35.554Z,73.38
2018-06-04T22:49:07.682Z,73.51
2018-06-04T22:51:36.675Z,74.02
2018-06-04T22:54:05.315Z,73.94
2018-06-04T22:56:33.961Z,74.12
2018-06-04T22:59:02.586Z,74.10
2018-06-04T23:01:31.276Z,73.83
2018-06-04T23:03:59.941Z,73.07
2018-06-04T23:19:52.278Z,71.99
2018-06-04T23:22:20.942Z,72.96
2018-06-04T23:24:49.579Z,73.31
2018-06-04T23:27:18.195Z,74.60
2018-06-04T23:29:46.702Z,74.58
2018-06-04T23:32:15.293Z,74.30
2018-06-04T23:34:44.608Z,76.04
2018-06-04T23:37:13.283Z,74.72
2018-06-04T23:39:41.898Z,74.51
2018-06-04T23:42:10.546Z,74.73
2018-06-04T23:44:39.190Z,76.29
2018-06-04T23:47:07.918Z,75.88
2018-06-04T23:49:36.643Z,76.42
2018-06-04T23:52:05.336Z,75.92
2018-06-04T23:54:33.955Z,75.91
2018-06-04T23:57:02.612Z,76.46
2018-06-04T23:59:31.218Z,75.97
